sensor_id;sensor_type;location;lat;lon;timestamp;temperature;humidity
25991;DHT22;13779;-33.886;151.198;2023-03-12T00:01:41;24.60;99.90
25991;DHT22;13779;-33.886;151.198;2023-03-12T00:04:11;24.70;99.90
25991;DHT22;13779;-33.886;151.198;2023-03-12T00:06:41;24.70;99.90
25991;DHT22;13779;-33.886;151.198;2023-03-12T00:09:11;24.70;99.90
25991;DHT22;13779;-33.886;151.198;2023-03-12T00:11:40;24.70;99.90
25991;DHT22;13779;-33.886;151.198;2023-03-12T00:14:10;24.60;99.90
25991;DHT22;13779;-33.886;151.198;2023-03-12T00:16:43;24.60;99.90
25991;DHT22;13779;-33.886;151.198;2023-03-12T00:19:13;24.60;99.90
25991;DHT22;13779;-33.886;151.198;2023-03-12T00:21:43;24.60;99.90
25991;DHT22;13779;-33.886;151.198;2023-03-12T00:24:12;24.60;99.90
25991;DHT22;13779;-33.886;151.198;2023-03-12T00:26:42;24.60;99.90
25991;DHT22;13779;-33.886;151.198;2023-03-12T00:29:12;24.60;99.90
25991;DHT22;13779;-33.886;151.198;2023-03-12T00:31:42;24.60;99.90
25991;DHT22;13779;-33.886;151.198;2023-03-12T00:34:11;24.70;99.90
25991;DHT22;13779;-33.886;151.198;2023-03-12T00:36:41;24.70;99.90
25991;DHT22;13779;-33.886;151.198;2023-03-12T00:39:11;24.80;99.90
25991;DHT22;13779;-33.886;151.198;2023-03-12T00:41:41;24.80;99.90
25991;DHT22;13779;-33.886;151.198;2023-03-12T00:44:12;24.70;99.90
25991;DHT22;13779;-33.886;151.198;2023-03-12T00:46:41;24.70;99.90
25991;DHT22;13779;-33.886;151.198;2023-03-12T00:49:11;24.80;99.90
25991;DHT22;13779;-33.886;151.198;2023-03-12T00:51:41;24.80;99.90
25991;DHT22;13779;-33.886;151.198;2023-03-12T00:54:10;24.80;99.90
25991;DHT22;13779;-33.886;151.198;2023-03-12T00:56:40;24.80;99.90
25991;DHT22;13779;-33.886;151.198;2023-03-12T00:59:10;24.80;99.90
25991;DHT22;13779;-33.886;151.198;2023-03-12T01:01:39;24.80;99.90
25991;DHT22;13779;-33.886;151.198;2023-03-12T01:04:10;24.70;99.90
25991;DHT22;13779;-33.886;151.198;2023-03-12T01:06:40;24.60;99.90
25991;DHT22;13779;-33.886;151.198;2023-03-12T01:09:10;24.50;99.90
25991;DHT22;13779;-33.886;151.198;2023-03-12T01:11:42;24.50;99.90
25991;DHT22;13779;-33.886;151.198;2023-03-12T01:14:12;24.50;99.90
25991;DHT22;13779;-33.886;151.198;2023-03-12T01:16:42;24.60;99.90
25991;DHT22;13779;-33.886;151.198;2023-03-12T01:19:11;24.50;99.90
25991;DHT22;13779;-33.886;151.198;2023-03-12T01:21:41;24.60;99.90
25991;DHT22;13779;-33.886;151.198;2023-03-12T01:24:11;24.60;99.90
25991;DHT22;13779;-33.886;151.198;2023-03-12T01:26:40;24.60;99.90
25991;DHT22;13779;-33.886;151.198;2023-03-12T01:29:10;24.60;99.90
25991;DHT22;13779;-33.886;151.198;2023-03-12T01:31:40;24.60;99.90
25991;DHT22;13779;-33.886;151.198;2023-03-12T01:34:10;24.70;99.90
25991;DHT22;13779;-33.886;151.198;2023-03-12T01:36:40;24.60;99.90
25991;DHT22;13779;-33.886;151.198;2023-03-12T01:39:10;24.60;99.90
25991;DHT22;13779;-33.886;151.198;2023-03-12T01:41:39;24.50;99.90
25991;DHT22;13779;-33.886;151.198;2023-03-12T01:44:12;24.50;99.90
25991;DHT22;13779;-33.886;151.198;2023-03-12T01:46:42;24.50;99.90
25991;DHT22;13779;-33.886;151.198;2023-03-12T01:52:00;24.60;99.90
25991;DHT22;13779;-33.886;151.198;2023-03-12T01:54:35;24.70;99.90
25991;DHT22;13779;-33.886;151.198;2023-03-12T01:57:08;24.70;99.90
25991;DHT22;13779;-33.886;151.198;2023-03-12T01:59:43;24.80;99.90
25991;DHT22;13779;-33.886;151.198;2023-03-12T02:02:14;24.80;99.90
25991;DHT22;13779;-33.886;151.198;2023-03-12T02:04:44;24.90;99.90
25991;DHT22;13779;-33.886;151.198;2023-03-12T02:07:15;25.00;99.90
25991;DHT22;13779;-33.886;151.198;2023-03-12T02:09:46;25.00;99.90
25991;DHT22;13779;-33.886;151.198;2023-03-12T02:12:16;24.90;99.90
25991;DHT22;13779;-33.886;151.198;2023-03-12T02:14:46;25.00;99.90
25991;DHT22;13779;-33.886;151.198;2023-03-12T02:17:17;25.00;99.90
25991;DHT22;13779;-33.886;151.198;2023-03-12T02:22:40;25.00;99.90
25991;DHT22;13779;-33.886;151.198;2023-03-12T02:25:30;25.10;99.90
25991;DHT22;13779;-33.886;151.198;2023-03-12T02:28:04;25.30;99.90
25991;DHT22;13779;-33.886;151.198;2023-03-12T02:30:35;25.40;99.90
25991;DHT22;13779;-33.886;151.198;2023-03-12T02:33:09;25.30;99.90
25991;DHT22;13779;-33.886;151.198;2023-03-12T02:35:39;25.40;99.90
25991;DHT22;13779;-33.886;151.198;2023-03-12T02:38:29;25.40;99.90
25991;DHT22;13779;-33.886;151.198;2023-03-12T02:41:04;25.40;99.90
25991;DHT22;13779;-33.886;151.198;2023-03-12T02:43:36;25.50;99.90
25991;DHT22;13779;-33.886;151.198;2023-03-12T02:46:06;25.40;99.90
25991;DHT22;13779;-33.886;151.198;2023-03-12T02:48:37;25.20;99.90
25991;DHT22;13779;-33.886;151.198;2023-03-12T02:51:06;25.20;99.90
25991;DHT22;13779;-33.886;151.198;2023-03-12T02:53:36;25.10;99.90
25991;DHT22;13779;-33.886;151.198;2023-03-12T02:56:06;25.10;99.90
25991;DHT22;13779;-33.886;151.198;2023-03-12T02:58:40;25.10;99.90
25991;DHT22;13779;-33.886;151.198;2023-03-12T03:01:10;25.10;99.90
25991;DHT22;13779;-33.886;151.198;2023-03-12T03:03:40;25.10;99.90
25991;DHT22;13779;-33.886;151.198;2023-03-12T03:06:10;25.30;99.90
25991;DHT22;13779;-33.886;151.198;2023-03-12T03:08:40;25.30;99.90
25991;DHT22;13779;-33.886;151.198;2023-03-12T03:11:10;25.30;99.90
25991;DHT22;13779;-33.886;151.198;2023-03-12T03:13:40;25.30;99.90
25991;DHT22;13779;-33.886;151.198;2023-03-12T03:16:09;25.20;99.90
25991;DHT22;13779;-33.886;151.198;2023-03-12T03:18:41;25.10;99.90
25991;DHT22;13779;-33.886;151.198;2023-03-12T03:21:11;25.00;99.90
25991;DHT22;13779;-33.886;151.198;2023-03-12T03:23:44;24.90;99.90
25991;DHT22;13779;-33.886;151.198;2023-03-12T03:26:14;24.80;99.90
25991;DHT22;13779;-33.886;151.198;2023-03-12T03:28:44;24.80;99.90
25991;DHT22;13779;-33.886;151.198;2023-03-12T03:31:14;24.90;99.90
25991;DHT22;13779;-33.886;151.198;2023-03-12T03:33:44;25.00;99.90
25991;DHT22;13779;-33.886;151.198;2023-03-12T03:36:14;24.90;99.90
25991;DHT22;13779;-33.886;151.198;2023-03-12T03:38:44;24.80;99.90
25991;DHT22;13779;-33.886;151.198;2023-03-12T03:41:17;24.80;99.90
25991;DHT22;13779;-33.886;151.198;2023-03-12T03:43:47;24.80;99.90
25991;DHT22;13779;-33.886;151.198;2023-03-12T03:46:17;24.90;99.90
25991;DHT22;13779;-33.886;151.198;2023-03-12T03:48:47;25.00;99.90
25991;DHT22;13779;-33.886;151.198;2023-03-12T03:51:18;25.10;99.90
25991;DHT22;13779;-33.886;151.198;2023-03-12T03:53:48;25.10;99.90
25991;DHT22;13779;-33.886;151.198;2023-03-12T03:56:18;25.10;99.90
25991;DHT22;13779;-33.886;151.198;2023-03-12T03:58:47;25.10;99.90
25991;DHT22;13779;-33.886;151.198;2023-03-12T04:01:17;25.10;99.90
25991;DHT22;13779;-33.886;151.198;2023-03-12T04:03:47;25.10;99.90
25991;DHT22;13779;-33.886;151.198;2023-03-12T04:06:16;25.10;99.90
25991;DHT22;13779;-33.886;151.198;2023-03-12T04:08:45;25.10;99.90
25991;DHT22;13779;-33.886;151.198;2023-03-12T04:11:16;25.10;99.90
25991;DHT22;13779;-33.886;151.198;2023-03-12T04:13:46;25.10;99.90
25991;DHT22;13779;-33.886;151.198;2023-03-12T04:16:16;25.10;99.90
25991;DHT22;13779;-33.886;151.198;2023-03-12T04:18:46;25.10;99.90
25991;DHT22;13779;-33.886;151.198;2023-03-12T04:21:15;25.10;99.90
25991;DHT22;13779;-33.886;151.198;2023-03-12T04:23:45;25.10;99.90
25991;DHT22;13779;-33.886;151.198;2023-03-12T04:26:14;25.10;99.90
25991;DHT22;13779;-33.886;151.198;2023-03-12T04:28:45;25.10;99.90
25991;DHT22;13779;-33.886;151.198;2023-03-12T04:31:14;25.10;99.90
25991;DHT22;13779;-33.886;151.198;2023-03-12T04:33:44;25.10;99.90
25991;DHT22;13779;-33.886;151.198;2023-03-12T04:36:13;25.00;99.90
25991;DHT22;13779;-33.886;151.198;2023-03-12T04:38:43;25.10;99.90
25991;DHT22;13779;-33.886;151.198;2023-03-12T04:41:13;25.00;99.90
25991;DHT22;13779;-33.886;151.198;2023-03-12T04:43:43;25.10;99.90
25991;DHT22;13779;-33.886;151.198;2023-03-12T04:46:13;25.10;99.90
25991;DHT22;13779;-33.886;151.198;2023-03-12T04:48:42;25.10;99.90
25991;DHT22;13779;-33.886;151.198;2023-03-12T04:51:12;25.10;99.90
25991;DHT22;13779;-33.886;151.198;2023-03-12T04:53:42;25.00;99.90
25991;DHT22;13779;-33.886;151.198;2023-03-12T04:56:12;24.90;99.90
25991;DHT22;13779;-33.886;151.198;2023-03-12T04:58:52;24.90;99.90
25991;DHT22;13779;-33.886;151.198;2023-03-12T05:01:26;24.90;99.90
25991;DHT22;13779;-33.886;151.198;2023-03-12T05:03:56;24.90;99.90
25991;DHT22;13779;-33.886;151.198;2023-03-12T05:06:26;24.80;99.90
25991;DHT22;13779;-33.886;151.198;2023-03-12T05:08:56;24.80;99.90
25991;DHT22;13779;-33.886;151.198;2023-03-12T05:11:25;24.80;99.90
25991;DHT22;13779;-33.886;151.198;2023-03-12T05:13:55;24.80;99.90
25991;DHT22;13779;-33.886;151.198;2023-03-12T05:16:25;24.80;99.90
25991;DHT22;13779;-33.886;151.198;2023-03-12T05:18:55;24.80;99.90
25991;DHT22;13779;-33.886;151.198;2023-03-12T05:21:25;24.70;99.90
25991;DHT22;13779;-33.886;151.198;2023-03-12T05:23:55;24.80;99.90
25991;DHT22;13779;-33.886;151.198;2023-03-12T05:26:26;24.70;99.90
25991;DHT22;13779;-33.886;151.198;2023-03-12T05:28:57;24.70;99.90
25991;DHT22;13779;-33.886;151.198;2023-03-12T05:31:27;24.70;99.90
25991;DHT22;13779;-33.886;151.198;2023-03-12T05:34:01;24.70;99.90
25991;DHT22;13779;-33.886;151.198;2023-03-12T05:36:31;24.70;99.90
25991;DHT22;13779;-33.886;151.198;2023-03-12T05:39:01;24.70;99.90
25991;DHT22;13779;-33.886;151.198;2023-03-12T05:41:30;24.70;99.90
25991;DHT22;13779;-33.886;151.198;2023-03-12T05:44:00;24.80;99.90
25991;DHT22;13779;-33.886;151.198;2023-03-12T05:46:30;24.80;99.90
25991;DHT22;13779;-33.886;151.198;2023-03-12T05:48:59;24.80;99.90
25991;DHT22;13779;-33.886;151.198;2023-03-12T05:51:29;24.80;99.90
25991;DHT22;13779;-33.886;151.198;2023-03-12T05:53:59;24.80;99.90
25991;DHT22;13779;-33.886;151.198;2023-03-12T05:56:29;24.70;99.90
25991;DHT22;13779;-33.886;151.198;2023-03-12T05:58:58;24.70;99.90
25991;DHT22;13779;-33.886;151.198;2023-03-12T06:01:28;24.70;99.90
25991;DHT22;13779;-33.886;151.198;2023-03-12T06:03:58;24.70;99.90
25991;DHT22;13779;-33.886;151.198;2023-03-12T06:06:31;24.70;99.90
25991;DHT22;13779;-33.886;151.198;2023-03-12T06:09:02;24.70;99.90
25991;DHT22;13779;-33.886;151.198;2023-03-12T06:11:32;24.60;99.90
25991;DHT22;13779;-33.886;151.198;2023-03-12T06:14:02;24.70;99.90
25991;DHT22;13779;-33.886;151.198;2023-03-12T06:16:31;24.70;99.90
25991;DHT22;13779;-33.886;151.198;2023-03-12T06:19:01;24.70;99.90
25991;DHT22;13779;-33.886;151.198;2023-03-12T06:21:32;24.70;99.90
25991;DHT22;13779;-33.886;151.198;2023-03-12T06:24:02;24.70;99.90
25991;DHT22;13779;-33.886;151.198;2023-03-12T06:26:31;24.70;99.90
25991;DHT22;13779;-33.886;151.198;2023-03-12T06:29:01;24.70;99.90
25991;DHT22;13779;-33.886;151.198;2023-03-12T06:31:31;24.70;99.90
25991;DHT22;13779;-33.886;151.198;2023-03-12T06:34:04;24.60;99.90
25991;DHT22;13779;-33.886;151.198;2023-03-12T06:36:33;24.60;99.90
25991;DHT22;13779;-33.886;151.198;2023-03-12T06:39:04;24.60;99.90
25991;DHT22;13779;-33.886;151.198;2023-03-12T06:41:41;24.60;99.90
25991;DHT22;13779;-33.886;151.198;2023-03-12T06:44:17;24.60;99.90
25991;DHT22;13779;-33.886;151.198;2023-03-12T06:46:47;24.60;99.90
25991;DHT22;13779;-33.886;151.198;2023-03-12T06:49:16;24.50;99.90
25991;DHT22;13779;-33.886;151.198;2023-03-12T06:51:46;24.50;99.90
25991;DHT22;13779;-33.886;151.198;2023-03-12T06:54:15;24.40;99.90
25991;DHT22;13779;-33.886;151.198;2023-03-12T06:56:45;24.40;99.90
25991;DHT22;13779;-33.886;151.198;2023-03-12T06:59:14;24.50;99.90
25991;DHT22;13779;-33.886;151.198;2023-03-12T07:01:46;24.40;99.90
25991;DHT22;13779;-33.886;151.198;2023-03-12T07:04:15;24.40;99.90
25991;DHT22;13779;-33.886;151.198;2023-03-12T07:06:45;24.30;99.90
25991;DHT22;13779;-33.886;151.198;2023-03-12T07:09:19;24.40;99.90
25991;DHT22;13779;-33.886;151.198;2023-03-12T07:11:48;24.30;99.90
25991;DHT22;13779;-33.886;151.198;2023-03-12T07:14:18;24.30;99.90
25991;DHT22;13779;-33.886;151.198;2023-03-12T07:16:49;24.30;99.90
25991;DHT22;13779;-33.886;151.198;2023-03-12T07:19:18;24.30;99.90
25991;DHT22;13779;-33.886;151.198;2023-03-12T07:21:48;24.30;99.90
25991;DHT22;13779;-33.886;151.198;2023-03-12T07:24:17;24.30;99.90
25991;DHT22;13779;-33.886;151.198;2023-03-12T07:26:47;24.30;99.90
25991;DHT22;13779;-33.886;151.198;2023-03-12T07:29:16;24.30;99.90
25991;DHT22;13779;-33.886;151.198;2023-03-12T07:31:46;24.20;99.90
25991;DHT22;13779;-33.886;151.198;2023-03-12T07:34:15;24.30;99.90
25991;DHT22;13779;-33.886;151.198;2023-03-12T07:36:45;24.20;99.90
25991;DHT22;13779;-33.886;151.198;2023-03-12T07:39:15;24.20;99.90
25991;DHT22;13779;-33.886;151.198;2023-03-12T07:41:44;24.20;99.90
25991;DHT22;13779;-33.886;151.198;2023-03-12T07:44:14;24.20;99.90
25991;DHT22;13779;-33.886;151.198;2023-03-12T07:46:43;24.20;99.90
25991;DHT22;13779;-33.886;151.198;2023-03-12T07:49:13;24.10;99.90
25991;DHT22;13779;-33.886;151.198;2023-03-12T07:51:42;24.10;99.90
25991;DHT22;13779;-33.886;151.198;2023-03-12T07:54:13;24.10;99.90
25991;DHT22;13779;-33.886;151.198;2023-03-12T07:56:43;24.10;99.90
25991;DHT22;13779;-33.886;151.198;2023-03-12T07:59:12;24.10;99.90
25991;DHT22;13779;-33.886;151.198;2023-03-12T08:01:42;24.10;99.90
25991;DHT22;13779;-33.886;151.198;2023-03-12T08:04:12;24.10;99.90
25991;DHT22;13779;-33.886;151.198;2023-03-12T08:06:42;24.10;99.90
25991;DHT22;13779;-33.886;151.198;2023-03-12T08:09:11;24.10;99.90
25991;DHT22;13779;-33.886;151.198;2023-03-12T08:11:41;24.00;99.90
25991;DHT22;13779;-33.886;151.198;2023-03-12T08:14:10;24.00;99.90
25991;DHT22;13779;-33.886;151.198;2023-03-12T08:16:40;24.00;99.90
25991;DHT22;13779;-33.886;151.198;2023-03-12T08:19:10;24.00;99.90
25991;DHT22;13779;-33.886;151.198;2023-03-12T08:21:40;24.00;99.90
25991;DHT22;13779;-33.886;151.198;2023-03-12T08:24:10;23.90;99.90
25991;DHT22;13779;-33.886;151.198;2023-03-12T08:26:39;23.90;99.90
25991;DHT22;13779;-33.886;151.198;2023-03-12T08:29:09;23.90;99.90
25991;DHT22;13779;-33.886;151.198;2023-03-12T08:31:39;23.90;99.90
25991;DHT22;13779;-33.886;151.198;2023-03-12T08:34:29;23.90;99.90
25991;DHT22;13779;-33.886;151.198;2023-03-12T08:36:58;23.90;99.90
25991;DHT22;13779;-33.886;151.198;2023-03-12T08:39:27;23.90;99.90
25991;DHT22;13779;-33.886;151.198;2023-03-12T08:41:57;23.90;99.90
25991;DHT22;13779;-33.886;151.198;2023-03-12T08:44:27;23.90;99.90
25991;DHT22;13779;-33.886;151.198;2023-03-12T08:46:56;23.90;99.90
25991;DHT22;13779;-33.886;151.198;2023-03-12T08:49:26;23.80;99.90
25991;DHT22;13779;-33.886;151.198;2023-03-12T08:51:55;23.90;99.90
25991;DHT22;13779;-33.886;151.198;2023-03-12T08:54:25;23.90;99.90
25991;DHT22;13779;-33.886;151.198;2023-03-12T08:56:55;23.80;99.90
25991;DHT22;13779;-33.886;151.198;2023-03-12T08:59:24;23.90;99.90
25991;DHT22;13779;-33.886;151.198;2023-03-12T09:01:54;23.80;99.90
25991;DHT22;13779;-33.886;151.198;2023-03-12T09:04:23;23.90;99.90
25991;DHT22;13779;-33.886;151.198;2023-03-12T09:06:53;23.90;99.90
25991;DHT22;13779;-33.886;151.198;2023-03-12T09:09:22;23.80;99.90
25991;DHT22;13779;-33.886;151.198;2023-03-12T09:11:52;23.80;99.90
25991;DHT22;13779;-33.886;151.198;2023-03-12T09:14:22;23.80;99.90
25991;DHT22;13779;-33.886;151.198;2023-03-12T09:17:11;23.70;99.90
25991;DHT22;13779;-33.886;151.198;2023-03-12T09:19:41;23.70;99.90
25991;DHT22;13779;-33.886;151.198;2023-03-12T09:22:10;23.70;99.90
25991;DHT22;13779;-33.886;151.198;2023-03-12T09:24:40;23.70;99.90
25991;DHT22;13779;-33.886;151.198;2023-03-12T09:27:09;23.70;99.90
25991;DHT22;13779;-33.886;151.198;2023-03-12T09:29:39;23.70;99.90
25991;DHT22;13779;-33.886;151.198;2023-03-12T09:32:25;23.70;99.90
25991;DHT22;13779;-33.886;151.198;2023-03-12T09:34:55;23.70;99.90
25991;DHT22;13779;-33.886;151.198;2023-03-12T09:37:25;23.70;99.90
25991;DHT22;13779;-33.886;151.198;2023-03-12T09:39:55;23.60;99.90
25991;DHT22;13779;-33.886;151.198;2023-03-12T09:42:46;23.60;99.90
25991;DHT22;13779;-33.886;151.198;2023-03-12T09:45:19;23.60;99.90
25991;DHT22;13779;-33.886;151.198;2023-03-12T09:47:50;23.60;99.90
25991;DHT22;13779;-33.886;151.198;2023-03-12T09:50:30;23.60;99.90
25991;DHT22;13779;-33.886;151.198;2023-03-12T09:53:21;23.60;99.90
25991;DHT22;13779;-33.886;151.198;2023-03-12T09:55:55;23.50;99.90
25991;DHT22;13779;-33.886;151.198;2023-03-12T10:03:38;23.50;99.90
25991;DHT22;13779;-33.886;151.198;2023-03-12T10:06:20;23.60;99.90
25991;DHT22;13779;-33.886;151.198;2023-03-12T10:08:57;23.60;99.90
25991;DHT22;13779;-33.886;151.198;2023-03-12T10:14:28;23.50;99.90
25991;DHT22;13779;-33.886;151.198;2023-03-12T10:20:09;23.50;99.90
25991;DHT22;13779;-33.886;151.198;2023-03-12T10:22:52;23.50;99.90
25991;DHT22;13779;-33.886;151.198;2023-03-12T10:27:58;23.40;99.90
25991;DHT22;13779;-33.886;151.198;2023-03-12T10:30:29;23.50;99.90
25991;DHT22;13779;-33.886;151.198;2023-03-12T10:33:01;23.50;99.90
25991;DHT22;13779;-33.886;151.198;2023-03-12T10:35:32;23.50;99.90
25991;DHT22;13779;-33.886;151.198;2023-03-12T10:38:03;23.50;99.90
25991;DHT22;13779;-33.886;151.198;2023-03-12T10:40:36;23.40;99.90
25991;DHT22;13779;-33.886;151.198;2023-03-12T10:43:08;23.40;99.90
25991;DHT22;13779;-33.886;151.198;2023-03-12T10:48:08;23.40;99.90
25991;DHT22;13779;-33.886;151.198;2023-03-12T10:50:39;23.40;99.90
25991;DHT22;13779;-33.886;151.198;2023-03-12T10:55:41;23.40;99.90
25991;DHT22;13779;-33.886;151.198;2023-03-12T10:58:23;23.40;99.90
25991;DHT22;13779;-33.886;151.198;2023-03-12T11:00:54;23.40;99.90
25991;DHT22;13779;-33.886;151.198;2023-03-12T11:03:25;23.40;99.90
25991;DHT22;13779;-33.886;151.198;2023-03-12T11:05:57;23.40;99.90
25991;DHT22;13779;-33.886;151.198;2023-03-12T11:08:31;23.40;99.90
25991;DHT22;13779;-33.886;151.198;2023-03-12T11:11:03;23.40;99.90
25991;DHT22;13779;-33.886;151.198;2023-03-12T11:13:34;23.40;99.90
25991;DHT22;13779;-33.886;151.198;2023-03-12T11:19:04;23.40;99.90
25991;DHT22;13779;-33.886;151.198;2023-03-12T11:21:34;23.40;99.90
25991;DHT22;13779;-33.886;151.198;2023-03-12T11:24:12;23.40;99.90
25991;DHT22;13779;-33.886;151.198;2023-03-12T11:32:16;23.40;99.90
25991;DHT22;13779;-33.886;151.198;2023-03-12T11:34:42;23.40;99.90
25991;DHT22;13779;-33.886;151.198;2023-03-12T11:37:22;23.40;99.90
25991;DHT22;13779;-33.886;151.198;2023-03-12T11:39:58;23.40;99.90
25991;DHT22;13779;-33.886;151.198;2023-03-12T11:42:44;23.40;99.90
25991;DHT22;13779;-33.886;151.198;2023-03-12T11:45:36;23.40;99.90
25991;DHT22;13779;-33.886;151.198;2023-03-12T11:53:22;23.40;99.90
25991;DHT22;13779;-33.886;151.198;2023-03-12T11:58:48;23.40;99.90
25991;DHT22;13779;-33.886;151.198;2023-03-12T12:01:28;23.40;99.90
25991;DHT22;13779;-33.886;151.198;2023-03-12T12:22:40;23.30;99.90
25991;DHT22;13779;-33.886;151.198;2023-03-12T12:35:38;23.40;99.90
25991;DHT22;13779;-33.886;151.198;2023-03-12T12:43:31;23.30;99.90
25991;DHT22;13779;-33.886;151.198;2023-03-12T12:46:08;23.30;99.90
25991;DHT22;13779;-33.886;151.198;2023-03-12T12:48:54;23.30;99.90
25991;DHT22;13779;-33.886;151.198;2023-03-12T12:51:47;23.30;99.90
25991;DHT22;13779;-33.886;151.198;2023-03-12T12:54:22;23.30;99.90
25991;DHT22;13779;-33.886;151.198;2023-03-12T12:59:33;23.30;99.90
25991;DHT22;13779;-33.886;151.198;2023-03-12T13:02:03;23.30;99.90
25991;DHT22;13779;-33.886;151.198;2023-03-12T13:04:35;23.30;99.90
25991;DHT22;13779;-33.886;151.198;2023-03-12T13:09:45;23.20;99.90
25991;DHT22;13779;-33.886;151.198;2023-03-12T13:14:46;23.20;99.90
25991;DHT22;13779;-33.886;151.198;2023-03-12T13:17:21;23.30;99.90
25991;DHT22;13779;-33.886;151.198;2023-03-12T13:19:52;23.20;99.90
25991;DHT22;13779;-33.886;151.198;2023-03-12T13:22:38;23.20;99.90
25991;DHT22;13779;-33.886;151.198;2023-03-12T13:27:43;23.20;99.90
25991;DHT22;13779;-33.886;151.198;2023-03-12T13:33:09;23.20;99.90
25991;DHT22;13779;-33.886;151.198;2023-03-12T13:35:39;23.20;99.90
25991;DHT22;13779;-33.886;151.198;2023-03-12T13:38:10;23.10;99.90
25991;DHT22;13779;-33.886;151.198;2023-03-12T13:40:53;23.20;99.90
25991;DHT22;13779;-33.886;151.198;2023-03-12T13:46:06;23.10;99.90
25991;DHT22;13779;-33.886;151.198;2023-03-12T13:48:49;23.20;99.90
25991;DHT22;13779;-33.886;151.198;2023-03-12T13:51:19;23.10;99.90
25991;DHT22;13779;-33.886;151.198;2023-03-12T13:54:11;23.10;99.90
25991;DHT22;13779;-33.886;151.198;2023-03-12T13:56:44;23.10;99.90
25991;DHT22;13779;-33.886;151.198;2023-03-12T13:59:16;23.10;99.90
25991;DHT22;13779;-33.886;151.198;2023-03-12T14:01:47;23.10;99.90
25991;DHT22;13779;-33.886;151.198;2023-03-12T14:04:29;23.10;99.90
25991;DHT22;13779;-33.886;151.198;2023-03-12T14:07:17;23.10;99.90
25991;DHT22;13779;-33.886;151.198;2023-03-12T14:21:00;23.10;99.90
25991;DHT22;13779;-33.886;151.198;2023-03-12T14:23:40;23.10;99.90
25991;DHT22;13779;-33.886;151.198;2023-03-12T14:26:16;23.10;99.90
25991;DHT22;13779;-33.886;151.198;2023-03-12T14:29:14;23.20;99.90
25991;DHT22;13779;-33.886;151.198;2023-03-12T14:31:41;23.20;99.90
25991;DHT22;13779;-33.886;151.198;2023-03-12T14:34:14;23.10;99.90
25991;DHT22;13779;-33.886;151.198;2023-03-12T14:41:48;23.10;99.90
25991;DHT22;13779;-33.886;151.198;2023-03-12T14:44:23;23.10;99.90
25991;DHT22;13779;-33.886;151.198;2023-03-12T14:47:06;23.00;99.90
25991;DHT22;13779;-33.886;151.198;2023-03-12T14:49:41;23.00;99.90
25991;DHT22;13779;-33.886;151.198;2023-03-12T14:52:12;23.00;99.90
25991;DHT22;13779;-33.886;151.198;2023-03-12T14:54:51;23.00;99.90
25991;DHT22;13779;-33.886;151.198;2023-03-12T14:57:21;23.10;99.90
25991;DHT22;13779;-33.886;151.198;2023-03-12T14:59:53;23.00;99.90
25991;DHT22;13779;-33.886;151.198;2023-03-12T15:02:23;23.00;99.90
25991;DHT22;13779;-33.886;151.198;2023-03-12T15:04:54;23.10;99.90
25991;DHT22;13779;-33.886;151.198;2023-03-12T15:07:31;23.00;99.90
25991;DHT22;13779;-33.886;151.198;2023-03-12T15:10:02;23.10;99.90
25991;DHT22;13779;-33.886;151.198;2023-03-12T15:12:35;23.00;99.90
25991;DHT22;13779;-33.886;151.198;2023-03-12T15:15:09;23.00;99.90
25991;DHT22;13779;-33.886;151.198;2023-03-12T15:17:44;23.00;99.90
25991;DHT22;13779;-33.886;151.198;2023-03-12T15:20:14;23.00;99.90
25991;DHT22;13779;-33.886;151.198;2023-03-12T15:22:44;23.10;99.90
25991;DHT22;13779;-33.886;151.198;2023-03-12T15:25:19;23.10;99.90
25991;DHT22;13779;-33.886;151.198;2023-03-12T15:28:01;23.10;99.90
25991;DHT22;13779;-33.886;151.198;2023-03-12T15:30:31;23.00;99.90
25991;DHT22;13779;-33.886;151.198;2023-03-12T15:33:04;23.00;99.90
25991;DHT22;13779;-33.886;151.198;2023-03-12T15:35:40;23.00;99.90
25991;DHT22;13779;-33.886;151.198;2023-03-12T15:38:13;23.00;99.90
25991;DHT22;13779;-33.886;151.198;2023-03-12T15:40:49;23.10;99.90
25991;DHT22;13779;-33.886;151.198;2023-03-12T15:43:19;23.00;99.90
25991;DHT22;13779;-33.886;151.198;2023-03-12T15:45:59;23.00;99.90
25991;DHT22;13779;-33.886;151.198;2023-03-12T15:48:36;23.00;99.90
25991;DHT22;13779;-33.886;151.198;2023-03-12T15:51:28;23.00;99.90
25991;DHT22;13779;-33.886;151.198;2023-03-12T15:57:43;23.00;99.90
25991;DHT22;13779;-33.886;151.198;2023-03-12T16:00:07;23.00;99.90
25991;DHT22;13779;-33.886;151.198;2023-03-12T16:02:37;23.00;99.90
25991;DHT22;13779;-33.886;151.198;2023-03-12T16:05:07;23.00;99.90
25991;DHT22;13779;-33.886;151.198;2023-03-12T16:07:37;22.90;99.90
25991;DHT22;13779;-33.886;151.198;2023-03-12T16:10:09;22.90;99.90
25991;DHT22;13779;-33.886;151.198;2023-03-12T16:12:40;22.90;99.90
25991;DHT22;13779;-33.886;151.198;2023-03-12T16:15:13;22.90;99.90
25991;DHT22;13779;-33.886;151.198;2023-03-12T16:17:44;22.90;99.90
25991;DHT22;13779;-33.886;151.198;2023-03-12T16:20:14;22.90;99.90
25991;DHT22;13779;-33.886;151.198;2023-03-12T16:22:45;22.90;99.90
25991;DHT22;13779;-33.886;151.198;2023-03-12T16:25:15;22.90;99.90
25991;DHT22;13779;-33.886;151.198;2023-03-12T16:27:49;22.90;99.90
25991;DHT22;13779;-33.886;151.198;2023-03-12T16:30:24;22.90;99.90
25991;DHT22;13779;-33.886;151.198;2023-03-12T16:32:54;22.90;99.90
25991;DHT22;13779;-33.886;151.198;2023-03-12T16:35:25;22.90;99.90
25991;DHT22;13779;-33.886;151.198;2023-03-12T16:37:59;22.90;99.90
25991;DHT22;13779;-33.886;151.198;2023-03-12T16:40:31;22.90;99.90
25991;DHT22;13779;-33.886;151.198;2023-03-12T16:43:02;22.90;99.90
25991;DHT22;13779;-33.886;151.198;2023-03-12T16:45:34;22.90;99.90
25991;DHT22;13779;-33.886;151.198;2023-03-12T16:48:04;22.90;99.90
25991;DHT22;13779;-33.886;151.198;2023-03-12T16:50:35;22.90;99.90
25991;DHT22;13779;-33.886;151.198;2023-03-12T16:53:04;22.90;99.90
25991;DHT22;13779;-33.886;151.198;2023-03-12T16:55:39;22.90;99.90
25991;DHT22;13779;-33.886;151.198;2023-03-12T16:58:12;23.00;99.90
25991;DHT22;13779;-33.886;151.198;2023-03-12T17:00:46;23.00;99.90
25991;DHT22;13779;-33.886;151.198;2023-03-12T17:06:00;22.90;99.90
25991;DHT22;13779;-33.886;151.198;2023-03-12T17:08:30;22.90;99.90
25991;DHT22;13779;-33.886;151.198;2023-03-12T17:11:00;23.00;99.90